^^
Station Historical Data
Daily Summary for April 27, 2017 Units:  Metric    English   Both
« Previous Day
Next Day »
Daily Weekly Monthly Yearly Custom
  High: Low: Average:
Temperature: 31.2 °C 15.6 °C 22.4 °C
Dew Point: 13.2 °C 5.5 °C 10.6 °C
Humidity: 80% 21% 53%
Wind Speed: 25.9km/h 0km/h 2.1km/h
Wind Gust: 38.6km/h - -
Wind- - South
Pressure: 1014.4 hPa 1010.7 hPa -
Precipitation: 0 mm    
Historical Graphs
 
 
Tabular Data for April 27, 2017
Time Temperature Dew Point Pressure Wind Wind Speed Wind Gust Humidity Rainfall Rate (Hourly) solar Conditions
00:06 19.1 °C 12.4 °C 1012.4 hPa Calm     65% 0 mm 0.0 W/m2
00:16 19.1 °C 12.6 °C 1012.4 hPa Calm     66% 0 mm 0.0 W/m2
00:21 19.2 °C 12.9 °C 1012.4 hPa Calm     67% 0 mm 0.0 W/m2
00:27 19.5 °C 13.2 °C 1012.4 hPa Calm     67% 0 mm 0.0 W/m2
00:32 19.7 °C 13.2 °C 1012.4 hPa Calm     66% 0 mm 0.0 W/m2
00:38 19.7 °C 13.2 °C 1012.4 hPa Calm     66% 0 mm 0.0 W/m2
00:48 19.7 °C 13.2 °C 1012.4 hPa Calm     66% 0 mm 0.0 W/m2
00:53 19.6 °C 13.1 °C 1012.4 hPa Calm     66% 0 mm 0.0 W/m2
00:59 19.4 °C 13.1 °C 1012.4 hPa Calm     67% 0 mm 0.0 W/m2
01:04 19.3 °C 13 °C 1012.4 hPa Calm     67% 0 mm 0.0 W/m2
01:09 19.3 °C 13 °C 1012.4 hPa Calm     67% 0 mm 0.0 W/m2
01:14 19.2 °C 12.9 °C 1012.4 hPa Calm     67% 0 mm 0.0 W/m2
01:20 19.1 °C 12.8 °C 1012.4 hPa Calm     67% 0 mm 0.0 W/m2
01:25 18.9 °C 12.9 °C 1012.4 hPa Calm     68% 0 mm 0.0 W/m2
01:31 19 °C 13 °C 1012.4 hPa Calm     68% 0 mm 0.0 W/m2
01:36 18.9 °C 12.9 °C 1012.4 hPa Calm     68% 0 mm 0.0 W/m2
01:41 18.9 °C 12.9 °C 1012.4 hPa Calm     68% 0 mm 0.0 W/m2
01:46 19 °C 13 °C 1012.4 hPa Calm     68% 0 mm 0.0 W/m2
01:51 19 °C 13 °C 1012.4 hPa Calm     68% 0 mm 0.0 W/m2
01:56 19 °C 13 °C 1012.4 hPa Calm     68% 0 mm 0.0 W/m2
02:06 19 °C 13.2 °C 1012.4 hPa Calm     69% 0 mm 0.0 W/m2
02:16 18.9 °C 13.1 °C 1012.1 hPa Calm     69% 0 mm 0.0 W/m2
02:26 18.7 °C 12.9 °C 1012.1 hPa Calm     69% 0 mm 0.0 W/m2
02:31 18.6 °C 13 °C 1012.1 hPa Calm     70% 0 mm 0.0 W/m2
02:37 18.5 °C 12.9 °C 1012.1 hPa Calm     70% 0 mm 0.0 W/m2
02:42 18.4 °C 12.8 °C 1012.1 hPa Calm     70% 0 mm 0.0 W/m2
02:47 18.3 °C 13 °C 1012.1 hPa Calm     71% 0 mm 0.0 W/m2
02:52 18.2 °C 12.9 °C 1012.1 hPa Calm     71% 0 mm 0.0 W/m2
02:58 18.1 °C 12.8 °C 1012.1 hPa Calm     71% 0 mm 0.0 W/m2
03:03 18.1 °C 12.8 °C 1012.1 hPa Calm     71% 0 mm 0.0 W/m2
03:08 18 °C 12.7 °C 1012.1 hPa Calm     71% 0 mm 0.0 W/m2
03:13 17.9 °C 12.4 °C 1012.1 hPa Calm     70% 0 mm 0.0 W/m2
03:23 17.5 °C 12.2 °C 1012.1 hPa Calm     71% 0 mm 0.0 W/m2
03:29 17.3 °C 12.2 °C 1012.1 hPa Calm     72% 0 mm 0.0 W/m2
03:34 17.2 °C 12.3 °C 1012.1 hPa Calm     73% 0 mm 0.0 W/m2
03:39 17.1 °C 12.2 °C 1012.1 hPa Calm     73% 0 mm 0.0 W/m2
03:44 17 °C 12.3 °C 1012.1 hPa Calm     74% 0 mm 0.0 W/m2
03:50 16.9 °C 12.2 °C 1012.1 hPa Calm     74% 0 mm 0.0 W/m2
04:00 16.7 °C 12.2 °C 1012.1 hPa Calm     75% 0 mm 0.0 W/m2
04:05 16.6 °C 12.1 °C 1012.1 hPa Calm     75% 0 mm 0.0 W/m2
04:10 16.4 °C 12.2 °C 1012.1 hPa Calm     76% 0 mm 0.0 W/m2
04:20 16.3 °C 12.1 °C 1012.1 hPa Calm     76% 0 mm 0.0 W/m2
04:26 16.2 °C 12 °C 1012.1 hPa Calm     76% 0 mm 0.0 W/m2
04:36 15.9 °C 11.9 °C 1012.4 hPa Calm     77% 0 mm 0.0 W/m2
04:41 15.7 °C 11.7 °C 1012.1 hPa Calm     77% 0 mm 0.0 W/m2
04:53 15.6 °C 11.8 °C 1012.4 hPa Calm     78% 0 mm 0.0 W/m2
05:06 15.6 °C 11.8 °C 1012.4 hPa Calm     78% 0 mm 0.0 W/m2
05:12 15.6 °C 11.8 °C 1012.4 hPa Calm     78% 0 mm 0.0 W/m2
05:17 15.6 °C 12 °C 1012.4 hPa Calm     79% 0 mm 0.0 W/m2
05:22 15.6 °C 12.2 °C 1012.4 hPa Calm     80% 0 mm 0.0 W/m2
05:27 15.7 °C 12.1 °C 1012.4 hPa Calm     79% 0 mm 0.0 W/m2
05:32 15.8 °C 12 °C 1012.4 hPa Calm     78% 0 mm 0.0 W/m2
05:38 15.9 °C 12.3 °C 1012.4 hPa Calm     79% 0 mm 0.0 W/m2
05:43 15.9 °C 11.9 °C 1012.4 hPa Calm     77% 0 mm 0.0 W/m2
05:48 15.8 °C 11.8 °C 1012.4 hPa Calm     77% 0 mm 0.0 W/m2
05:53 15.7 °C 11.7 °C 1012.8 hPa Calm     77% 0 mm 0.0 W/m2
05:58 15.8 °C 11.4 °C 1012.8 hPa Calm     75% 0 mm 0.0 W/m2
06:08 17.3 °C 11.3 °C 1012.8 hPa Calm     68% 0 mm 0.0 W/m2
06:14 17.9 °C 11.2 °C 1012.8 hPa Calm     65% 0 mm 5.0 W/m2
06:20 18.3 °C 11.1 °C 1012.8 hPa Calm     63% 0 mm 9.0 W/m2
06:25 18.6 °C 11.2 °C 1012.8 hPa Calm     62% 0 mm 14.0 W/m2
06:29 18.7 °C 11.3 °C 1013.1 hPa Calm     62% 0 mm 21.0 W/m2
06:34 18.4 °C 11.2 °C 1013.4 hPa Calm     63% 0 mm 28.0 W/m2
06:44 17.4 °C 11 °C 1013.4 hPa Calm     66% 0 mm 32.0 W/m2
06:54 17.8 °C 11.1 °C 1013.1 hPa Calm     65% 0 mm 76.0 W/m2
07:15 19 °C 11.1 °C 1013.1 hPa Calm     60% 0 mm 121.0 W/m2
07:25 20.3 °C 11 °C 1013.4 hPa Calm     55% 0 mm 186.0 W/m2
07:45 21.5 °C 10.9 °C 1013.4 hPa Calm     51% 0 mm 237.0 W/m2
07:56 22.4 °C 10.8 °C 1013.4 hPa Calm     48% 0 mm 288.0 W/m2
08:06 22.9 °C 11 °C 1013.8 hPa Calm     47% 0 mm 320.0 W/m2
08:21 23.4 °C 11.1 °C 1014.1 hPa Calm   6.4 km/h 46% 0 mm 371.0 W/m2
08:36 23.6 °C 11 °C 1014.4 hPa Calm     45% 0 mm 408.0 W/m2
08:47 23.8 °C 11.2 °C 1014.4 hPa Calm     45% 0 mm 441.0 W/m2
09:09 24.2 °C 11.2 °C 1014.4 hPa Calm     44% 0 mm 483.0 W/m2
09:22 24.8 °C 11 °C 1014.4 hPa Calm   1.6 km/h 42% 0 mm 520.0 W/m2
09:28 25.1 °C 10.6 °C 1014.4 hPa Calm   12.9 km/h 40% 0 mm 540.0 W/m2
09:43 25.3 °C 10.3 °C 1014.4 hPa ENE 7.9 km/h 14.5 km/h 39% 0 mm 573.0 W/m2
09:59 25.5 °C 10.5 °C 1014.4 hPa ENE 7.9 km/h 16.1 km/h 39% 0 mm 598.0 W/m2
10:23 26.7 °C 10 °C 1014.1 hPa NE 11.1 km/h 14.5 km/h 35% 0 mm 652.0 W/m2
10:38 27.1 °C 9.9 °C 1014.1 hPa NNE 6.4 km/h 14.5 km/h 34% 0 mm 680.0 W/m2
10:54 27.6 °C 9.9 °C 1013.8 hPa NNE 9.7 km/h 16.1 km/h 33% 0 mm 680.0 W/m2
11:09 28.1 °C 9.9 °C 1013.4 hPa NNE 6.4 km/h 9.7 km/h 32% 0 mm 694.0 W/m2
11:24 28.2 °C 9.9 °C 1013.4 hPa NNE 11.1 km/h 12.9 km/h 32% 0 mm 700.0 W/m2
11:45 28.7 °C 9.9 °C 1013.1 hPa Calm   17.7 km/h 31% 0 mm 703.0 W/m2
11:55 29.2 °C 9.3 °C 1012.8 hPa NNE 11.1 km/h 12.9 km/h 29% 0 mm 703.0 W/m2
12:17 29.4 °C 9 °C 1012.8 hPa Calm   16.1 km/h 28% 0 mm 705.0 W/m2
12:26 29.7 °C 8.7 °C 1012.4 hPa Calm   17.7 km/h 27% 0 mm 691.0 W/m2
12:45 30.1 °C 7.9 °C 1012.1 hPa Calm   19.3 km/h 25% 0 mm 703.0 W/m2
12:51 30.2 °C 8 °C 1012.1 hPa NNE 11.1 km/h 14.5 km/h 25% 0 mm 721.0 W/m2
13:11 30.5 °C 7 °C 1011.7 hPa North 6.4 km/h 16.1 km/h 23% 0 mm 116.0 W/m2
13:20 30.3 °C 6.9 °C 1011.7 hPa North 17.7 km/h 20.9 km/h 23% 0 mm 759.0 W/m2
13:31 31 °C 6.8 °C 1011.7 hPa NW 25.9 km/h 38.6 km/h 22% 0 mm 707.0 W/m2
13:36 30.7 °C 6.5 °C 1011.7 hPa Calm     22% 0 mm 673.0 W/m2
13:55 30.4 °C 6.9 °C 1011.7 hPa WNW 16.3 km/h 20.9 km/h 23% 0 mm 118.0 W/m2
14:04 30.2 °C 6.8 °C 1011.7 hPa WNW 7.9 km/h 17.7 km/h 23% 0 mm 615.0 W/m2
14:13 30.8 °C 7.3 °C 1011.7 hPa Calm   22.5 km/h 23% 0 mm 612.0 W/m2
14:19 30.9 °C 7.4 °C 1011.7 hPa NW 11.1 km/h 24.1 km/h 23% 0 mm 577.0 W/m2
14:25 30.9 °C 7.4 °C 1011.7 hPa NW 6.4 km/h 11.3 km/h 23% 0 mm 570.0 W/m2
14:34 31 °C 7.4 °C 1011.4 hPa NW 9.7 km/h 22.5 km/h 23% 0 mm 533.0 W/m2
14:37 30.8 °C 7.9 °C 1011.4 hPa Calm   11.3 km/h 24% 0 mm 510.0 W/m2
14:50 31.1 °C 7.5 °C 1011.4 hPa NNW 11.1 km/h 19.3 km/h 23% 0 mm 483.0 W/m2
14:58 31.2 °C 7 °C 1011.4 hPa NNW 6.4 km/h 19.3 km/h 22% 0 mm 431.0 W/m2
15:03 31.1 °C 6.9 °C 1011.1 hPa NNW 9.7 km/h 20.9 km/h 22% 0 mm 406.0 W/m2
15:08 31 °C 6.8 °C 1011.1 hPa NNW 7.9 km/h 9.7 km/h 22% 0 mm 390.0 W/m2
15:23 30.7 °C 6.5 °C 1011.1 hPa North 7.9 km/h 14.5 km/h 22% 0 mm 339.0 W/m2
15:38 31 °C 6.8 °C 1011.1 hPa North 11.1 km/h 19.3 km/h 22% 0 mm 292.0 W/m2
15:58 31 °C 6.1 °C 1011.1 hPa Calm   12.9 km/h 21% 0 mm 239.0 W/m2
16:22 30.3 °C 6.9 °C 1011.1 hPa North 3.2 km/h 9.7 km/h 23% 0 mm 149.0 W/m2
16:34 30.1 °C 6.7 °C 1011.1 hPa North 6.4 km/h 14.5 km/h 23% 0 mm 109.0 W/m2
16:44 29.6 °C 6.9 °C 1011.1 hPa Calm     24% 0 mm 19.0 W/m2
16:59 29.2 °C 6.6 °C 1011.1 hPa Calm   6.4 km/h 24% 0 mm 12.0 W/m2
17:15 29.1 °C 6.5 °C 1011.1 hPa North 1.4 km/h 9.7 km/h 24% 0 mm 9.0 W/m2
17:28 29 °C 6.4 °C 1010.7 hPa North 3.2 km/h 8 km/h 24% 0 mm 0.0 W/m2
17:38 28.8 °C 6.2 °C 1010.7 hPa Calm     24% 0 mm 0.0 W/m2
17:46 28.6 °C 6.1 °C 1011.1 hPa Calm     24% 0 mm 0.0 W/m2
17:55 28 °C 5.5 °C 1011.1 hPa Calm     24% 0 mm 0.0 W/m2
18:01 27.6 °C 5.8 °C 1011.1 hPa Calm     25% 0 mm 0.0 W/m2
Canyon Roadhouse, Fishriver Canyon, Namibia
Compliments of Weather Underground - 2.25 mb